createdAt,value
2016-04-21T00:00:58.242Z,49.84
2016-04-21T00:01:58.433Z,49.74
2016-04-21T00:02:58.420Z,49.74
2016-04-21T00:03:58.219Z,49.65
2016-04-21T00:04:58.613Z,49.74
2016-04-21T00:05:58.396Z,49.65
2016-04-21T00:06:58.399Z,49.74
2016-04-21T00:07:58.464Z,49.65
2016-04-21T00:08:58.389Z,49.84
2016-04-21T00:09:58.377Z,49.84
2016-04-21T00:10:58.597Z,49.74
2016-04-21T00:11:58.585Z,49.74
2016-04-21T00:12:58.369Z,49.93
2016-04-21T00:13:58.371Z,49.74
2016-04-21T00:14:58.561Z,49.74
2016-04-21T00:15:58.563Z,49.65
2016-04-21T00:16:58.566Z,49.74
2016-04-21T00:17:58.148Z,49.84
2016-04-21T00:18:58.354Z,49.65
2016-04-21T00:19:59.732Z,49.74
2016-04-21T00:20:58.140Z,49.84
2016-04-21T00:21:58.330Z,49.84
2016-04-21T00:22:58.348Z,49.74
2016-04-21T00:23:58.523Z,49.84
2016-04-21T00:24:58.322Z,49.65
2016-04-21T00:25:58.122Z,49.74
2016-04-21T00:26:58.312Z,49.65
2016-04-21T00:27:58.300Z,49.65
2016-04-21T00:28:58.506Z,49.84
2016-04-21T00:29:58.289Z,49.84
2016-04-21T00:30:58.495Z,49.65
2016-04-21T00:31:58.294Z,49.74
2016-04-21T00:32:58.484Z,49.74
2016-04-21T00:33:58.300Z,49.84
2016-04-21T00:34:58.099Z,49.65
2016-04-21T00:35:58.290Z,49.84
2016-04-21T00:36:58.089Z,49.65
2016-04-21T00:37:58.060Z,49.55
2016-04-21T00:38:58.251Z,49.74
2016-04-21T00:39:58.457Z,49.65
2016-04-21T00:40:58.459Z,49.74
2016-04-21T00:41:58.446Z,49.65
2016-04-21T00:42:58.246Z,49.65
2016-04-21T00:43:58.030Z,49.74
2016-04-21T00:44:58.439Z,49.65
2016-04-21T00:45:58.223Z,49.62
2016-04-21T00:46:58.226Z,49.55
2016-04-21T00:47:58.228Z,49.65
2016-04-21T00:48:58.215Z,49.65
2016-04-21T00:49:58.421Z,49.65
2016-04-21T00:50:58.407Z,49.74
2016-04-21T00:51:58.208Z,49.62
2016-04-21T00:52:58.445Z,49.74
2016-04-21T00:53:58.195Z,49.74
2016-04-21T00:54:58.388Z,49.65
2016-04-21T00:55:57.998Z,49.55
2016-04-21T00:56:58.187Z,49.55
2016-04-21T00:57:57.971Z,49.62
2016-04-21T00:58:58.364Z,49.65
2016-04-21T00:59:58.164Z,49.62
2016-04-21T01:00:57.964Z,49.74
2016-04-21T01:01:57.951Z,49.81
2016-04-21T01:02:57.937Z,49.81
2016-04-21T01:03:58.347Z,49.62
2016-04-21T01:04:58.365Z,49.62
2016-04-21T01:05:58.006Z,49.52
2016-04-21T01:06:58.024Z,49.62
2016-04-21T01:07:58.556Z,49.62
2016-04-21T01:08:58.541Z,49.55
2016-04-21T01:09:58.548Z,49.52
2016-04-21T01:10:58.365Z,49.62
2016-04-21T01:11:58.587Z,49.62
2016-04-21T01:12:58.387Z,49.62
2016-04-21T01:13:58.390Z,49.71
2016-04-21T01:14:58.609Z,49.62
2016-04-21T01:15:58.399Z,49.65
2016-04-21T01:16:58.407Z,49.52
2016-04-21T01:17:58.416Z,49.62
2016-04-21T01:18:58.611Z,49.52
2016-04-21T01:19:58.604Z,49.71
2016-04-21T01:20:58.609Z,49.52
2016-04-21T01:21:58.273Z,49.62
2016-04-21T01:22:58.685Z,49.71
2016-04-21T01:23:58.423Z,49.71
2016-04-21T01:24:58.397Z,49.71
2016-04-21T01:25:58.401Z,49.62
2016-04-21T01:26:58.592Z,49.43
2016-04-21T01:27:58.580Z,49.43
2016-04-21T01:28:58.583Z,49.52
2016-04-21T01:29:58.383Z,49.52
2016-04-21T01:30:58.167Z,49.62
2016-04-21T01:31:58.576Z,49.62
2016-04-21T01:32:58.564Z,49.62
2016-04-21T01:33:58.364Z,49.62
2016-04-21T01:34:58.367Z,49.62
2016-04-21T01:35:58.354Z,49.52
2016-04-21T01:36:58.560Z,49.62
2016-04-21T01:37:58.343Z,49.52
2016-04-21T01:38:58.535Z,49.71
2016-04-21T01:39:58.131Z,49.43
2016-04-21T01:40:58.384Z,49.71
2016-04-21T01:41:58.323Z,49.71
2016-04-21T01:42:58.326Z,49.62
2016-04-21T01:43:58.313Z,49.62
2016-04-21T01:44:58.300Z,49.62
2016-04-21T01:45:58.303Z,49.62
2016-04-21T01:46:58.509Z,49.62
2016-04-21T01:47:58.293Z,49.52
2016-04-21T01:48:58.498Z,49.62
2016-04-21T01:49:58.283Z,49.62
2016-04-21T01:50:58.082Z,49.62
2016-04-21T01:51:58.272Z,49.71
2016-04-21T01:52:58.072Z,49.62
2016-04-21T01:53:58.075Z,49.62
2016-04-21T01:54:58.469Z,49.62
2016-04-21T01:55:58.252Z,49.62
2016-04-21T01:56:58.067Z,49.62
2016-04-21T01:57:58.460Z,49.62
2016-04-21T01:58:58.260Z,49.71
2016-04-21T01:59:58.043Z,49.62
2016-04-21T02:00:58.234Z,49.71
2016-04-21T02:01:58.440Z,49.62
2016-04-21T02:02:58.224Z,49.62
2016-04-21T02:03:58.227Z,49.52
2016-04-21T02:04:58.213Z,49.43
2016-04-21T02:05:58.216Z,49.62
2016-04-21T02:06:58.203Z,49.62
2016-04-21T02:07:58.410Z,49.71
2016-04-21T02:08:58.209Z,49.62
2016-04-21T02:09:58.196Z,49.62
2016-04-21T02:10:57.995Z,49.52
2016-04-21T02:11:58.185Z,49.62
2016-04-21T02:12:57.969Z,49.62
2016-04-21T02:13:58.379Z,49.52
2016-04-21T02:14:58.194Z,49.62
2016-04-21T02:15:58.181Z,49.52
2016-04-21T02:16:58.183Z,49.52
2016-04-21T02:17:58.170Z,49.62
2016-04-21T02:18:58.344Z,49.62
2016-04-21T02:19:57.941Z,49.62
2016-04-21T02:20:58.148Z,49.52
2016-04-21T02:21:58.134Z,49.62
2016-04-21T02:22:58.324Z,49.62
2016-04-21T02:23:58.124Z,49.52
2016-04-21T02:24:58.143Z,49.52
2016-04-21T02:25:58.333Z,49.62
2016-04-21T02:26:58.336Z,49.62
2016-04-21T02:27:58.103Z,49.62
2016-04-21T02:28:58.310Z,49.62
2016-04-21T02:29:58.109Z,49.62
2016-04-21T02:30:58.096Z,49.52
2016-04-21T02:31:58.302Z,49.62
2016-04-21T02:32:58.085Z,49.52
2016-04-21T02:33:58.088Z,49.62
2016-04-21T02:34:58.294Z,49.43
2016-04-21T02:35:58.078Z,49.43
2016-04-21T02:36:58.066Z,49.43
2016-04-21T02:37:57.849Z,49.33
2016-04-21T02:38:58.055Z,49.52
2016-04-21T02:39:58.043Z,49.43
2016-04-21T02:40:58.045Z,49.52
2016-04-21T02:41:57.860Z,49.52
2016-04-21T02:42:57.831Z,49.43
2016-04-21T02:43:57.834Z,49.33
2016-04-21T02:44:57.837Z,49.62
2016-04-21T02:45:58.011Z,49.33
2016-04-21T02:46:58.218Z,49.43
2016-04-21T02:47:58.017Z,49.43
2016-04-21T02:48:58.004Z,49.33
2016-04-21T02:49:58.006Z,49.43
2016-04-21T02:50:57.994Z,49.33
2016-04-21T02:51:58.215Z,49.43
2016-04-21T02:52:58.186Z,49.52
2016-04-21T02:53:57.798Z,49.52
2016-04-21T02:54:57.989Z,49.43
2016-04-21T02:55:58.178Z,49.62
2016-04-21T02:56:57.760Z,49.52
2016-04-21T02:57:57.965Z,49.33
2016-04-21T02:58:58.156Z,49.33
2016-04-21T02:59:57.955Z,49.43
2016-04-21T03:00:58.146Z,49.52
2016-04-21T03:01:58.164Z,49.33
2016-04-21T03:02:57.947Z,49.43
2016-04-21T03:03:57.935Z,49.43
2016-04-21T03:04:57.922Z,49.6
2016-04-21T03:05:58.127Z,49.33
2016-04-21T03:06:58.130Z,49.4
2016-04-21T03:07:57.914Z,49.31
2016-04-21T03:08:57.760Z,49.33
2016-04-21T03:09:57.905Z,49.5
2016-04-21T03:10:58.094Z,49.43
2016-04-21T03:11:57.894Z,49.5
2016-04-21T03:12:58.099Z,49.33
2016-04-21T03:13:57.884Z,49.43
2016-04-21T03:14:58.090Z,49.52
2016-04-21T03:15:58.092Z,49.43
2016-04-21T03:16:58.079Z,49.4
2016-04-21T03:17:57.862Z,49.4
2016-04-21T03:18:57.647Z,49.6
2016-04-21T03:19:57.650Z,49.5
2016-04-21T03:20:57.652Z,49.5
2016-04-21T03:21:57.644Z,49.31
2016-04-21T03:22:57.854Z,49.33
2016-04-21T03:23:57.857Z,49.43
2016-04-21T03:24:58.031Z,49.4
2016-04-21T03:25:58.034Z,49.33
2016-04-21T03:26:58.037Z,49.33
2016-04-21T03:27:57.617Z,49.11
2016-04-21T03:28:57.621Z,49.21
2016-04-21T03:29:57.810Z,49.31
2016-04-21T03:30:57.797Z,49.31
2016-04-21T03:31:57.815Z,49.43
2016-04-21T03:32:57.803Z,49.4
2016-04-21T03:33:57.790Z,49.5
2016-04-21T03:34:57.573Z,49.4
2016-04-21T03:35:57.780Z,49.4
2016-04-21T03:36:57.783Z,49.6
2016-04-21T03:37:57.582Z,49.5
2016-04-21T03:38:57.959Z,49.4
2016-04-21T03:39:57.759Z,49.4
2016-04-21T03:40:57.949Z,49.4
2016-04-21T03:41:57.546Z,49.5
2016-04-21T03:42:57.736Z,49.31
2016-04-21T03:43:57.942Z,49.4
2016-04-21T03:44:57.725Z,49.4
2016-04-21T03:45:57.932Z,49.4
2016-04-21T03:46:57.949Z,49.5
2016-04-21T03:47:57.719Z,49.5
2016-04-21T03:48:57.908Z,49.69
2016-04-21T03:49:57.708Z,49.6
2016-04-21T03:50:57.491Z,49.5
2016-04-21T03:51:57.698Z,49.6
2016-04-21T03:52:57.887Z,49.6
2016-04-21T03:53:57.485Z,49.6
2016-04-21T03:54:57.487Z,49.5
2016-04-21T03:55:57.677Z,49.4
2016-04-21T03:56:57.868Z,49.6
2016-04-21T03:57:57.870Z,49.69
2016-04-21T03:58:57.654Z,49.5
2016-04-21T03:59:57.859Z,49.5
2016-04-21T04:00:57.862Z,49.6
2016-04-21T04:01:57.646Z,49.5
2016-04-21T04:02:57.634Z,49.6
2016-04-21T04:03:57.433Z,49.69
2016-04-21T04:04:57.623Z,49.6
2016-04-21T04:05:57.626Z,49.6
2016-04-21T04:06:57.831Z,49.69
2016-04-21T04:07:57.616Z,49.6
2016-04-21T04:08:57.602Z,49.5
2016-04-21T04:09:57.403Z,49.6
2016-04-21T04:10:57.811Z,49.6
2016-04-21T04:11:57.408Z,49.5
2016-04-21T04:12:57.597Z,49.69
2016-04-21T04:13:57.585Z,49.6
2016-04-21T04:14:57.587Z,49.6
2016-04-21T04:15:57.777Z,49.6
2016-04-21T04:16:57.780Z,49.6
2016-04-21T04:17:57.564Z,49.69
2016-04-21T04:18:57.755Z,49.6
2016-04-21T04:19:57.554Z,49.69
2016-04-21T04:20:57.760Z,49.79
2016-04-21T04:21:57.747Z,49.5
2016-04-21T04:22:57.547Z,49.79
2016-04-21T04:23:57.534Z,49.69
2016-04-21T04:24:57.740Z,49.79
2016-04-21T04:25:57.726Z,49.69
2016-04-21T04:26:57.526Z,49.69
2016-04-21T04:27:57.716Z,49.69
2016-04-21T04:28:57.515Z,49.6
2016-04-21T04:29:57.707Z,49.79
2016-04-21T04:30:57.490Z,49.69
2016-04-21T04:31:57.493Z,49.69
2016-04-21T04:32:57.698Z,49.79
2016-04-21T04:33:57.686Z,49.69
2016-04-21T04:34:57.688Z,49.79
2016-04-21T04:35:57.692Z,49.69
2016-04-21T04:36:57.678Z,49.6
2016-04-21T04:37:57.462Z,49.5
2016-04-21T04:38:57.465Z,49.6
2016-04-21T04:39:57.248Z,49.5
2016-04-21T04:40:57.642Z,49.6
2016-04-21T04:41:57.441Z,49.6
2016-04-21T04:42:57.225Z,49.6
2016-04-21T04:43:57.228Z,49.5
2016-04-21T04:44:57.637Z,49.5
2016-04-21T04:45:57.436Z,49.79
2016-04-21T04:46:57.424Z,49.6
2016-04-21T04:47:57.410Z,49.5
2016-04-21T04:48:57.617Z,49.6
2016-04-21T04:49:57.604Z,49.5
2016-04-21T04:50:57.607Z,49.6
2016-04-21T04:51:57.593Z,49.69
2016-04-21T04:52:57.612Z,49.86
2016-04-21T04:53:57.380Z,49.76
2016-04-21T04:54:57.383Z,49.66
2016-04-21T04:55:57.371Z,49.76
2016-04-21T04:56:57.576Z,49.66
2016-04-21T04:57:57.563Z,49.66
2016-04-21T04:58:57.581Z,49.66
2016-04-21T04:59:57.349Z,49.66
2016-04-21T05:00:57.133Z,49.57
2016-04-21T05:01:57.340Z,49.86
2016-04-21T05:02:57.342Z,49.66
2016-04-21T05:03:57.532Z,49.86
2016-04-21T05:04:57.112Z,49.86
2016-04-21T05:05:57.522Z,49.86
2016-04-21T05:06:57.305Z,50.05
2016-04-21T05:07:57.308Z,49.57
2016-04-21T05:08:57.093Z,49.66
2016-04-21T05:09:57.298Z,49.48
2016-04-21T05:10:57.286Z,49.57
2016-04-21T05:11:57.288Z,49.6
2016-04-21T05:12:57.494Z,49.57
2016-04-21T05:13:57.277Z,49.57
2016-04-21T05:14:57.077Z,49.57
2016-04-21T05:15:57.283Z,49.57
2016-04-21T05:16:57.270Z,49.66
2016-04-21T05:17:57.257Z,49.66
2016-04-21T05:18:57.447Z,49.57
2016-04-21T05:19:57.247Z,49.66
2016-04-21T05:20:57.438Z,49.86
2016-04-21T05:21:57.283Z,49.76
2016-04-21T05:22:57.427Z,49.66
2016-04-21T05:23:57.023Z,49.66
2016-04-21T05:24:57.229Z,49.66
2016-04-21T05:25:57.013Z,49.86
2016-04-21T05:26:57.218Z,49.66
2016-04-21T05:27:57.206Z,49.48
2016-04-21T05:28:56.990Z,49.57
2016-04-21T05:29:57.399Z,49.57
2016-04-21T05:30:56.996Z,49.29
2016-04-21T05:31:57.388Z,49.38
2016-04-21T05:32:56.973Z,49.4
2016-04-21T05:33:57.227Z,49.38
2016-04-21T05:34:56.980Z,49.38
2016-04-21T05:35:56.951Z,49.66
2016-04-21T05:36:56.984Z,49.57
2016-04-21T05:37:56.946Z,49.57
2016-04-21T05:38:57.184Z,49.66
2016-04-21T05:39:56.984Z,49.48
2016-04-21T05:40:57.330Z,49.38
2016-04-21T05:41:56.926Z,49.29
2016-04-21T05:42:57.131Z,49.38
2016-04-21T05:43:57.120Z,49.29
2016-04-21T05:44:57.106Z,49.11
2016-04-21T05:45:57.311Z,49.31
2016-04-21T05:46:57.300Z,49.4
2016-04-21T05:47:57.098Z,49.31
2016-04-21T05:48:57.289Z,49.31
2016-04-21T05:49:56.886Z,49.4
2016-04-21T05:50:57.278Z,49.4
2016-04-21T05:51:57.281Z,49.4
2016-04-21T05:52:56.861Z,49.21
2016-04-21T05:53:56.897Z,49.31
2016-04-21T05:54:56.852Z,49.21
2016-04-21T05:55:57.057Z,49.31
2016-04-21T05:56:57.248Z,49.21
2016-04-21T05:57:57.250Z,49.21
2016-04-21T05:58:57.237Z,49.11
2016-04-21T05:59:57.038Z,49.11
2016-04-21T06:00:57.227Z,49.02
2016-04-21T06:01:57.027Z,48.83
2016-04-21T06:02:57.233Z,49.11
2016-04-21T06:03:57.220Z,49.02
2016-04-21T06:04:57.004Z,48.83
2016-04-21T06:05:57.007Z,49.11
2016-04-21T06:06:57.212Z,48.93
2016-04-21T06:07:57.199Z,49.02
2016-04-21T06:08:56.842Z,49.02
2016-04-21T06:09:56.986Z,49.11
2016-04-21T06:10:56.973Z,48.83
2016-04-21T06:11:56.773Z,48.83
2016-04-21T06:12:57.165Z,48.93
2016-04-21T06:13:56.965Z,48.93
2016-04-21T06:14:56.953Z,49.02
2016-04-21T06:15:57.159Z,48.83
2016-04-21T06:16:56.942Z,49.02
2016-04-21T06:17:56.742Z,48.93
2016-04-21T06:18:57.151Z,48.85
2016-04-21T06:19:57.138Z,48.75
2016-04-21T06:20:57.125Z,48.73
2016-04-21T06:21:57.127Z,48.95
2016-04-21T06:22:57.114Z,48.73
2016-04-21T06:23:56.977Z,48.85
2016-04-21T06:24:56.916Z,48.95
2016-04-21T06:25:56.888Z,48.85
2016-04-21T06:26:56.907Z,48.75
2016-04-21T06:27:57.097Z,48.75
2016-04-21T06:28:57.083Z,48.66
2016-04-21T06:29:56.680Z,48.75
2016-04-21T06:30:56.871Z,48.47
2016-04-21T06:31:56.874Z,48.47
2016-04-21T06:32:56.861Z,48.38
2016-04-21T06:33:56.863Z,48.38
2016-04-21T06:34:56.850Z,48.28
2016-04-21T06:35:56.665Z,48.38
2016-04-21T06:36:56.855Z,48.38
2016-04-21T06:37:56.843Z,48.28
2016-04-21T06:38:57.049Z,48.28
2016-04-21T06:39:56.832Z,48.28
2016-04-21T06:40:56.820Z,48.38
2016-04-21T06:41:56.823Z,48.38
2016-04-21T06:42:56.809Z,48.38
2016-04-21T06:43:56.811Z,48.75
2016-04-21T06:44:56.799Z,48.66
2016-04-21T06:45:56.801Z,48.38
2016-04-21T06:46:56.789Z,48.28
2016-04-21T06:47:56.792Z,48.38
2016-04-21T06:48:56.779Z,48.28
2016-04-21T06:49:56.781Z,48.66
2016-04-21T06:50:56.987Z,48.57
2016-04-21T06:51:56.975Z,48.47
2016-04-21T06:52:56.961Z,48.57
2016-04-21T06:53:56.636Z,48.57
2016-04-21T06:54:56.764Z,48.66
2016-04-21T06:55:56.547Z,48.66
2016-04-21T06:56:56.956Z,48.57
2016-04-21T06:57:56.741Z,48.85
2016-04-21T06:58:56.524Z,49.14
2016-04-21T06:59:56.949Z,48.85
2016-04-21T07:00:56.936Z,48.4
2016-04-21T07:01:56.922Z,48.3
2016-04-21T07:02:56.519Z,48.09
2016-04-21T07:03:56.928Z,48.18
2016-04-21T07:04:56.493Z,48.49
2016-04-21T07:05:56.699Z,48.3
2016-04-21T07:06:56.702Z,48.21
2016-04-21T07:07:56.892Z,48.4
2016-04-21T07:08:56.707Z,48.69
2016-04-21T07:09:56.679Z,48.59
2016-04-21T07:10:56.681Z,48.78
2016-04-21T07:11:56.871Z,48.21
2016-04-21T07:12:56.671Z,48.4
2016-04-21T07:13:56.862Z,48.59
2016-04-21T07:14:56.864Z,48.3
2016-04-21T07:15:56.648Z,48.11
2016-04-21T07:16:56.634Z,48.49
2016-04-21T07:17:56.856Z,48.88
2016-04-21T07:18:56.640Z,48.97
2016-04-21T07:19:56.830Z,48.88
2016-04-21T07:20:56.428Z,49.26
2016-04-21T07:21:56.836Z,49.26
2016-04-21T07:22:56.432Z,49.26
2016-04-21T07:23:56.857Z,49.36
2016-04-21T07:24:56.610Z,49.45
2016-04-21T07:25:56.612Z,49.45
2016-04-21T07:26:56.615Z,49.45
2016-04-21T07:27:56.603Z,49.16
2016-04-21T07:28:56.589Z,48.69
2016-04-21T07:29:56.592Z,48.88
2016-04-21T07:30:56.391Z,48.97
2016-04-21T07:31:56.378Z,48.11
2016-04-21T07:32:56.569Z,48.4
2016-04-21T07:33:56.571Z,48.11
2016-04-21T07:34:56.574Z,48.61
2016-04-21T07:35:56.763Z,48.59
2016-04-21T07:36:56.548Z,48.71
2016-04-21T07:37:56.552Z,48.59
2016-04-21T07:38:56.616Z,48.61
2016-04-21T07:39:56.743Z,48.52
2016-04-21T07:40:56.763Z,48.43
2016-04-21T07:41:56.327Z,48.43
2016-04-21T07:42:56.330Z,48.23
2016-04-21T07:43:56.724Z,48.23
2016-04-21T07:44:56.523Z,48.52
2016-04-21T07:45:56.526Z,48.52
2016-04-21T07:46:56.715Z,48.52
2016-04-21T07:47:56.515Z,48.71
2016-04-21T07:48:56.315Z,48.8
2016-04-21T07:49:56.505Z,48.71
2016-04-21T07:50:56.695Z,48.43
2016-04-21T07:51:56.495Z,48.43
2016-04-21T07:52:56.701Z,48.52
2016-04-21T07:53:56.312Z,48.33
2016-04-21T07:54:56.487Z,48.04
2016-04-21T07:55:56.475Z,48.43
2016-04-21T07:56:56.461Z,48.43
2016-04-21T07:57:56.480Z,48.61
2016-04-21T07:58:56.670Z,48.71
2016-04-21T07:59:56.657Z,48.8
2016-04-21T08:00:56.456Z,48.9
2016-04-21T08:01:56.240Z,48.9
2016-04-21T08:02:56.244Z,48.8
2016-04-21T08:03:56.449Z,48.71
2016-04-21T08:04:56.248Z,48.52
2016-04-21T08:05:56.439Z,48.61
2016-04-21T08:06:56.629Z,48.8
2016-04-21T08:07:56.429Z,48.71
2016-04-21T08:08:56.432Z,48.71
2016-04-21T08:09:56.418Z,48.9
2016-04-21T08:10:56.218Z,48.61
2016-04-21T08:11:56.610Z,49
2016-04-21T08:12:56.395Z,49
2016-04-21T08:13:56.616Z,48.8
2016-04-21T08:14:56.385Z,48.8
2016-04-21T08:15:56.388Z,49.1
2016-04-21T08:16:56.390Z,49
2016-04-21T08:17:56.377Z,48.9
2016-04-21T08:18:56.583Z,49.38
2016-04-21T08:19:56.368Z,49.19
2016-04-21T08:20:56.573Z,49.19
2016-04-21T08:21:56.576Z,49.1
2016-04-21T08:22:56.562Z,48.8
2016-04-21T08:23:56.580Z,49
2016-04-21T08:24:56.365Z,48.8
2016-04-21T08:25:56.148Z,48.9
2016-04-21T08:26:56.605Z,48.9
2016-04-21T08:27:56.544Z,49
2016-04-21T08:28:56.532Z,49
2016-04-21T08:29:56.331Z,49
2016-04-21T08:30:56.536Z,48.9
2016-04-21T08:31:56.322Z,49
2016-04-21T08:32:56.527Z,48.9
2016-04-21T08:33:56.342Z,48.9
2016-04-21T08:34:56.314Z,48.9
2016-04-21T08:35:56.113Z,48.9
2016-04-21T08:36:56.507Z,49
2016-04-21T08:37:56.509Z,49.1
2016-04-21T08:38:56.496Z,49.1
2016-04-21T08:39:56.093Z,49.19
2016-04-21T08:40:56.079Z,49.19
2016-04-21T08:41:56.302Z,49.29
2016-04-21T08:42:56.288Z,49.29
2016-04-21T08:43:56.479Z,49.19
2016-04-21T08:44:56.279Z,49.19
2016-04-21T08:45:56.281Z,49.1
2016-04-21T08:46:56.267Z,49.29
2016-04-21T08:47:56.271Z,49.1
2016-04-21T08:48:56.274Z,49.29
2016-04-21T08:49:56.057Z,49.29
2016-04-21T08:50:56.262Z,49.19
2016-04-21T08:51:56.047Z,49.1
2016-04-21T08:52:56.445Z,49.19
2016-04-21T08:53:56.245Z,49.29
2016-04-21T08:54:56.247Z,49.29
2016-04-21T08:55:56.031Z,49.29
2016-04-21T08:56:56.236Z,49.38
2016-04-21T08:57:56.427Z,49.41
2016-04-21T08:58:56.227Z,49.48
2016-04-21T08:59:56.416Z,49.31
2016-04-21T09:00:56.435Z,49.6
2016-04-21T09:01:56.423Z,49.79
2016-04-21T09:02:56.206Z,49.69
2016-04-21T09:03:56.193Z,49.6
2016-04-21T09:04:56.211Z,49.69
2016-04-21T09:05:56.199Z,49.69
2016-04-21T09:06:56.389Z,49.88
2016-04-21T09:07:56.188Z,49.6
2016-04-21T09:08:56.379Z,49.6
2016-04-21T09:09:56.413Z,49.5
2016-04-21T09:10:55.977Z,49.6
2016-04-21T09:11:56.184Z,49.79
2016-04-21T09:12:56.170Z,49.98
2016-04-21T09:13:56.158Z,49.69
2016-04-21T09:14:56.177Z,49.69
2016-04-21T09:15:55.976Z,49.69
2016-04-21T09:16:56.165Z,49.79
2016-04-21T09:17:56.153Z,49.79
2016-04-21T09:18:55.936Z,49.6
2016-04-21T09:19:56.159Z,49.79
2016-04-21T09:20:56.145Z,49.88
2016-04-21T09:21:56.132Z,49.79
2016-04-21T09:22:56.134Z,49.88
2016-04-21T09:23:56.122Z,49.79
2016-04-21T09:24:56.344Z,49.79
2016-04-21T09:25:56.128Z,50.08
2016-04-21T09:26:56.318Z,50.17
2016-04-21T09:27:56.118Z,50.08
2016-04-21T09:28:56.308Z,49.79
2016-04-21T09:29:55.904Z,49.79
2016-04-21T09:30:55.906Z,49.79
2016-04-21T09:31:56.097Z,50.08
2016-04-21T09:32:55.880Z,49.98
2016-04-21T09:33:56.102Z,50.17
2016-04-21T09:34:55.886Z,50.08
2016-04-21T09:35:56.311Z,49.98
2016-04-21T09:36:56.079Z,49.98
2016-04-21T09:37:56.082Z,49.79
2016-04-21T09:38:56.287Z,50.46
2016-04-21T09:39:56.072Z,50.37
2016-04-21T09:40:56.074Z,50.08
2016-04-21T09:41:55.858Z,50.27
2016-04-21T09:42:56.063Z,50.08
2016-04-21T09:43:56.254Z,50.08
2016-04-21T09:44:55.851Z,50.17
2016-04-21T09:45:55.853Z,50.27
2016-04-21T09:46:56.262Z,50.27
2016-04-21T09:47:56.249Z,50.46
2016-04-21T09:48:55.845Z,50.27
2016-04-21T09:49:56.052Z,50.46
2016-04-21T09:50:56.039Z,50.75
2016-04-21T09:51:56.228Z,50.56
2016-04-21T09:52:56.029Z,50.37
2016-04-21T09:53:56.015Z,50.46
2016-04-21T09:54:56.018Z,50.08
2016-04-21T09:55:56.224Z,50.17
2016-04-21T09:56:55.805Z,50.08
2016-04-21T09:57:55.808Z,50.17
2016-04-21T09:58:55.997Z,49.98
2016-04-21T09:59:56.001Z,49.98
2016-04-21T10:00:56.222Z,49.98
2016-04-21T10:01:55.990Z,50.08
2016-04-21T10:02:55.790Z,50.17
2016-04-21T10:03:55.792Z,50.29
2016-04-21T10:04:56.185Z,50.08
2016-04-21T10:05:55.782Z,50.08
2016-04-21T10:06:55.972Z,50.27
2016-04-21T10:07:55.975Z,50.08
2016-04-21T10:08:56.165Z,50.75
2016-04-21T10:09:55.777Z,50.56
2016-04-21T10:10:56.203Z,50.46
2016-04-21T10:11:56.234Z,50.56
2016-04-21T10:12:56.280Z,50.56
2016-04-21T10:13:56.311Z,50.46
2016-04-21T10:14:56.358Z,50.37
2016-04-21T10:15:56.166Z,50.37
2016-04-21T10:16:56.388Z,50.27
2016-04-21T10:17:56.203Z,50.27
2016-04-21T10:18:56.222Z,50.75
2016-04-21T10:19:56.241Z,50.75
2016-04-21T10:20:56.235Z,50.84
2016-04-21T10:21:56.024Z,50.46
2016-04-21T10:22:56.441Z,50.56
2016-04-21T10:23:56.245Z,50.37
2016-04-21T10:24:56.128Z,50.27
2016-04-21T10:25:56.447Z,50.49
2016-04-21T10:26:56.232Z,50.46
2016-04-21T10:27:56.440Z,50.68
2016-04-21T10:28:56.430Z,50.68
2016-04-21T10:29:56.435Z,50.68
2016-04-21T10:30:56.439Z,50.56
2016-04-21T10:31:56.020Z,50.46
2016-04-21T10:32:56.429Z,50.39
2016-04-21T10:33:56.229Z,50.46
2016-04-21T10:34:56.420Z,50.58
2016-04-21T10:35:56.220Z,50.37
2016-04-21T10:36:56.411Z,50.84
2016-04-21T10:37:56.415Z,50.87
2016-04-21T10:38:56.417Z,50.58
2016-04-21T10:39:56.201Z,50.49
2016-04-21T10:40:56.204Z,50.68
2016-04-21T10:41:56.004Z,50.58
2016-04-21T10:42:56.398Z,51.06
2016-04-21T10:43:56.400Z,50.58
2016-04-21T10:44:56.387Z,50.58
2016-04-21T10:45:56.390Z,50.58
2016-04-21T10:46:56.173Z,51.06
2016-04-21T10:47:56.380Z,50.96
2016-04-21T10:48:56.789Z,51.06
2016-04-21T10:49:56.167Z,51.06
2016-04-21T10:50:56.185Z,50.78
2016-04-21T10:51:56.375Z,50.58
2016-04-21T10:52:56.159Z,50.78
2016-04-21T10:53:56.162Z,51.25
2016-04-21T10:54:56.164Z,51.45
2016-04-21T10:55:56.354Z,50.96
2016-04-21T10:56:56.153Z,51.16
2016-04-21T10:57:56.141Z,51.06
2016-04-21T10:58:56.347Z,50.96
2016-04-21T10:59:55.943Z,51.25
2016-04-21T11:00:56.336Z,51.06
2016-04-21T11:01:56.120Z,51.06
2016-04-21T11:02:56.327Z,51.06
2016-04-21T11:03:56.329Z,51.16
2016-04-21T11:04:56.332Z,51.16
2016-04-21T11:05:55.913Z,50.78
2016-04-21T11:06:56.119Z,50.87
2016-04-21T11:07:55.918Z,50.87
2016-04-21T11:08:56.108Z,50.78
2016-04-21T11:09:56.110Z,50.68
2016-04-21T11:10:56.301Z,50.68
2016-04-21T11:11:56.101Z,50.87
2016-04-21T11:12:56.104Z,50.87
2016-04-21T11:13:56.090Z,51.25
2016-04-21T11:14:56.296Z,51.25
2016-04-21T11:15:56.080Z,51.35
2016-04-21T11:16:56.286Z,50.96
2016-04-21T11:17:56.084Z,51.16
2016-04-21T11:18:56.072Z,50.96
2016-04-21T11:19:56.293Z,50.96
2016-04-21T11:20:56.062Z,51.06
2016-04-21T11:21:56.064Z,50.87
2016-04-21T11:22:55.865Z,51.09
2016-04-21T11:23:56.258Z,51.09
2016-04-21T11:24:56.261Z,50.8
2016-04-21T11:25:56.247Z,50.9
2016-04-21T11:26:56.250Z,50.9
2016-04-21T11:27:56.034Z,51.09
2016-04-21T11:28:56.256Z,51.09
2016-04-21T11:29:55.836Z,51.09
2016-04-21T11:30:56.042Z,50.99
2016-04-21T11:31:56.044Z,50.9
2016-04-21T11:32:56.032Z,50.7
2016-04-21T11:33:56.238Z,50.61
2016-04-21T11:34:56.038Z,50.9
2016-04-21T11:35:56.024Z,50.99
2016-04-21T11:36:56.027Z,50.8
2016-04-21T11:37:55.795Z,50.8
2016-04-21T11:38:56.016Z,50.61
2016-04-21T11:39:56.004Z,50.61
2016-04-21T11:40:56.007Z,50.51
2016-04-21T11:41:56.010Z,51.09
2016-04-21T11:42:55.793Z,50.7
2016-04-21T11:43:55.999Z,50.8
2016-04-21T11:44:56.190Z,50.99
2016-04-21T11:45:56.193Z,51.28
2016-04-21T11:46:55.976Z,50.99
2016-04-21T11:47:56.181Z,51.18
2016-04-21T11:48:55.981Z,51.18
2016-04-21T11:49:55.781Z,50.9
2016-04-21T11:50:55.971Z,51.09
2016-04-21T11:51:55.818Z,51.18
2016-04-21T11:52:56.554Z,51.09
2016-04-21T11:53:56.009Z,51.18
2016-04-21T11:54:55.809Z,51.09
2016-04-21T11:55:55.953Z,51.09
2016-04-21T11:56:56.159Z,51.09
2016-04-21T11:57:55.959Z,50.9
2016-04-21T11:58:56.148Z,51.09
2016-04-21T11:59:56.151Z,50.99
2016-04-21T12:00:55.935Z,51.18
2016-04-21T12:01:56.141Z,51.37
2016-04-21T12:02:55.941Z,51.28
2016-04-21T12:03:56.131Z,51.18
2016-04-21T12:04:56.150Z,51.28
2016-04-21T12:05:56.136Z,51.09
2016-04-21T12:06:55.920Z,51.18
2016-04-21T12:07:56.126Z,51.18
2016-04-21T12:08:55.925Z,51.09
2016-04-21T12:09:56.132Z,51.28
2016-04-21T12:10:55.915Z,51.28
2016-04-21T12:11:55.918Z,51.31
2016-04-21T12:12:56.108Z,51.28
2016-04-21T12:13:56.110Z,50.99
2016-04-21T12:14:55.895Z,50.54
2016-04-21T12:15:55.898Z,50.7
2016-04-21T12:16:56.104Z,50.54
2016-04-21T12:17:55.903Z,50.63
2016-04-21T12:18:55.671Z,51.11
2016-04-21T12:19:56.095Z,50.54
2016-04-21T12:20:56.082Z,50.54
2016-04-21T12:21:55.882Z,50.54
2016-04-21T12:22:55.869Z,51.02
2016-04-21T12:23:55.685Z,51.11
2016-04-21T12:24:55.922Z,51.37
2016-04-21T12:25:56.081Z,51.02
2016-04-21T12:26:55.864Z,51.02
2016-04-21T12:27:55.649Z,50.73
2016-04-21T12:28:55.651Z,51.21
2016-04-21T12:29:55.872Z,51.31
2016-04-21T12:30:55.656Z,50.82
2016-04-21T12:31:55.847Z,51.11
2016-04-21T12:32:56.053Z,51.02
2016-04-21T12:33:55.836Z,51.02
2016-04-21T12:34:55.839Z,51.02
2016-04-21T12:35:56.029Z,51.11
2016-04-21T12:36:55.829Z,51.21
2016-04-21T12:37:55.832Z,51.31
2016-04-21T12:38:55.835Z,51.11
2016-04-21T12:39:55.837Z,51.11
2016-04-21T12:40:56.027Z,50.92
2016-04-21T12:41:55.811Z,51.11
2016-04-21T12:42:56.017Z,51.31
2016-04-21T12:43:56.019Z,51.31
2016-04-21T12:44:55.819Z,51.4
2016-04-21T12:45:56.009Z,51.31
2016-04-21T12:46:55.996Z,50.92
2016-04-21T12:47:55.999Z,50.73
2016-04-21T12:48:55.829Z,50.63
2016-04-21T12:49:55.599Z,50.92
2016-04-21T12:50:55.601Z,51.02
2016-04-21T12:51:55.995Z,51.11
2016-04-21T12:52:55.794Z,50.73
2016-04-21T12:53:56.000Z,50.63
2016-04-21T12:54:55.659Z,50.82
2016-04-21T12:55:55.567Z,51.11
2016-04-21T12:56:55.773Z,50.92
2016-04-21T12:57:55.776Z,51.02